CheckWX is a tool to help pilots better visualize weather data.  It is not intended as a substitute for an official pre-flight weather briefing.

03:12:06 UTC

KELD METAR
South Arkansas Regional at Goodwin Field Airport
El Dorado, Arkansas, USA
Current

19 mins ago

KELD 260253Z AUTO 00000KT 10SM CLR 24/23 A3006 RMK AO2 SLP176 T02390233 53009
Observed
May-26 @ 02:53 UTC
Visibility
10 SM
Flight Rules
VFR
Cloud Levels
  • Clear skies
Temperature
24°C / 75°F
Dewpoint
23°C / 73°F
Humidity
94%
Altimeter
30.06" Hg
Pressure
1017.92 hPa
Previous

1 hour ago

KELD 260153Z AUTO 12003KT 4SM BR CLR 26/24 A3003 RMK AO2 SLP164 T02560239
Observed
May-26 @ 01:53 UTC
Wind
  • 120° at 3 KTS
Visibility
4 SM
Flight Rules
MVFR
Conditions
Mist
Cloud Levels
  • Clear skies
Temperature
26°C / 79°F
Dewpoint
24°C / 75°F
Humidity
89%
Altimeter
30.03" Hg
Pressure
1016.92 hPa
Previous

2 hours ago

KELD 260053Z AUTO 14003KT 10SM FEW055 29/23 A3003 RMK AO2 SLP166 T02890228
Observed
May-26 @ 00:53 UTC
Wind
  • 140° at 3 KTS
Visibility
10 SM
Flight Rules
VFR
Cloud Levels
  • Few at 5,500' AGL
Temperature
29°C / 84°F
Dewpoint
23°C / 73°F
Heat Index
32°C / 90°F
Humidity
70%
Altimeter
30.03" Hg
Pressure
1016.92 hPa